sensor_id;sensor_type;location;lat;lon;timestamp;P1;durP1;ratioP1;P2;durP2;ratioP2
68923;SDS011;55961;52.156;20.942;2023-02-19T00:01:30;8.82;;;2.83;;
68923;SDS011;55961;52.156;20.942;2023-02-19T00:04:17;7.53;;;2.05;;
68923;SDS011;55961;52.156;20.942;2023-02-19T00:06:44;6.93;;;1.47;;
68923;SDS011;55961;52.156;20.942;2023-02-19T00:09:11;7.30;;;2.15;;
68923;SDS011;55961;52.156;20.942;2023-02-19T00:11:39;9.95;;;2.63;;
68923;SDS011;55961;52.156;20.942;2023-02-19T00:14:06;10.10;;;2.47;;
68923;SDS011;55961;52.156;20.942;2023-02-19T00:16:33;9.25;;;2.90;;
68923;SDS011;55961;52.156;20.942;2023-02-19T00:19:01;7.63;;;2.80;;
68923;SDS011;55961;52.156;20.942;2023-02-19T00:21:29;8.45;;;2.65;;
68923;SDS011;55961;52.156;20.942;2023-02-19T00:23:57;8.93;;;3.05;;
68923;SDS011;55961;52.156;20.942;2023-02-19T00:26:24;7.68;;;2.97;;
68923;SDS011;55961;52.156;20.942;2023-02-19T00:28:51;8.65;;;2.90;;
68923;SDS011;55961;52.156;20.942;2023-02-19T00:31:23;9.47;;;3.07;;
68923;SDS011;55961;52.156;20.942;2023-02-19T00:33:52;11.68;;;3.40;;
68923;SDS011;55961;52.156;20.942;2023-02-19T00:36:19;4.85;;;2.05;;
68923;SDS011;55961;52.156;20.942;2023-02-19T00:38:46;10.75;;;3.13;;
68923;SDS011;55961;52.156;20.942;2023-02-19T00:41:13;9.35;;;3.42;;
68923;SDS011;55961;52.156;20.942;2023-02-19T00:43:44;8.63;;;2.67;;
68923;SDS011;55961;52.156;20.942;2023-02-19T00:46:17;6.60;;;1.70;;
68923;SDS011;55961;52.156;20.942;2023-02-19T00:48:45;6.45;;;2.53;;
68923;SDS011;55961;52.156;20.942;2023-02-19T00:51:11;7.85;;;2.28;;
68923;SDS011;55961;52.156;20.942;2023-02-19T00:53:38;9.25;;;2.45;;
68923;SDS011;55961;52.156;20.942;2023-02-19T00:56:04;7.07;;;2.03;;
68923;SDS011;55961;52.156;20.942;2023-02-19T00:58:31;8.05;;;2.25;;
68923;SDS011;55961;52.156;20.942;2023-02-19T01:00:57;8.68;;;1.67;;
68923;SDS011;55961;52.156;20.942;2023-02-19T01:03:23;8.95;;;2.53;;
68923;SDS011;55961;52.156;20.942;2023-02-19T01:05:49;7.17;;;1.87;;
68923;SDS011;55961;52.156;20.942;2023-02-19T01:08:16;6.78;;;1.38;;
68923;SDS011;55961;52.156;20.942;2023-02-19T01:10:42;8.98;;;2.00;;
68923;SDS011;55961;52.156;20.942;2023-02-19T01:13:08;7.00;;;2.45;;
68923;SDS011;55961;52.156;20.942;2023-02-19T01:15:34;6.30;;;1.95;;
68923;SDS011;55961;52.156;20.942;2023-02-19T01:18:01;6.77;;;2.70;;
68923;SDS011;55961;52.156;20.942;2023-02-19T01:20:27;5.90;;;2.33;;
68923;SDS011;55961;52.156;20.942;2023-02-19T01:22:53;6.57;;;2.05;;
68923;SDS011;55961;52.156;20.942;2023-02-19T01:25:19;4.37;;;1.53;;
68923;SDS011;55961;52.156;20.942;2023-02-19T01:27:45;6.35;;;1.85;;
68923;SDS011;55961;52.156;20.942;2023-02-19T01:30:10;12.48;;;2.42;;
68923;SDS011;55961;52.156;20.942;2023-02-19T01:32:37;8.20;;;2.27;;
68923;SDS011;55961;52.156;20.942;2023-02-19T01:35:03;6.28;;;1.85;;
68923;SDS011;55961;52.156;20.942;2023-02-19T01:37:29;9.02;;;1.98;;
68923;SDS011;55961;52.156;20.942;2023-02-19T01:39:55;6.80;;;2.42;;
68923;SDS011;55961;52.156;20.942;2023-02-19T01:42:21;10.00;;;2.93;;
68923;SDS011;55961;52.156;20.942;2023-02-19T01:47:13;6.57;;;1.55;;
68923;SDS011;55961;52.156;20.942;2023-02-19T01:49:46;6.07;;;1.77;;
68923;SDS011;55961;52.156;20.942;2023-02-19T01:52:22;9.70;;;2.70;;
68923;SDS011;55961;52.156;20.942;2023-02-19T01:55:00;8.20;;;2.42;;
68923;SDS011;55961;52.156;20.942;2023-02-19T01:57:32;4.18;;;1.20;;
68923;SDS011;55961;52.156;20.942;2023-02-19T02:00:05;8.73;;;1.60;;
68923;SDS011;55961;52.156;20.942;2023-02-19T02:02:34;6.20;;;2.05;;
68923;SDS011;55961;52.156;20.942;2023-02-19T02:05:01;6.00;;;1.17;;
68923;SDS011;55961;52.156;20.942;2023-02-19T02:07:28;7.78;;;2.67;;
68923;SDS011;55961;52.156;20.942;2023-02-19T02:10:12;5.85;;;1.77;;
68923;SDS011;55961;52.156;20.942;2023-02-19T02:12:44;6.57;;;1.65;;
68923;SDS011;55961;52.156;20.942;2023-02-19T02:15:14;9.60;;;2.17;;
68923;SDS011;55961;52.156;20.942;2023-02-19T02:33:31;11.07;;;2.40;;
68923;SDS011;55961;52.156;20.942;2023-02-19T02:36:09;6.97;;;0.85;;
68923;SDS011;55961;52.156;20.942;2023-02-19T02:38:38;5.27;;;1.20;;
68923;SDS011;55961;52.156;20.942;2023-02-19T02:41:07;8.02;;;1.63;;
68923;SDS011;55961;52.156;20.942;2023-02-19T02:43:33;6.32;;;1.20;;
68923;SDS011;55961;52.156;20.942;2023-02-19T02:45:59;5.45;;;1.13;;
68923;SDS011;55961;52.156;20.942;2023-02-19T02:53:36;4.97;;;1.20;;
68923;SDS011;55961;52.156;20.942;2023-02-19T02:56:28;3.92;;;1.15;;
68923;SDS011;55961;52.156;20.942;2023-02-19T02:58:55;5.63;;;1.52;;
68923;SDS011;55961;52.156;20.942;2023-02-19T03:02:11;7.18;;;1.15;;
68923;SDS011;55961;52.156;20.942;2023-02-19T03:07:34;6.13;;;1.35;;
68923;SDS011;55961;52.156;20.942;2023-02-19T03:10:08;7.50;;;1.08;;
68923;SDS011;55961;52.156;20.942;2023-02-19T03:12:36;2.42;;;0.65;;
68923;SDS011;55961;52.156;20.942;2023-02-19T03:15:24;6.95;;;1.13;;
68923;SDS011;55961;52.156;20.942;2023-02-19T03:18:14;5.40;;;0.93;;
68923;SDS011;55961;52.156;20.942;2023-02-19T03:21:01;5.50;;;1.02;;
68923;SDS011;55961;52.156;20.942;2023-02-19T03:23:30;5.95;;;0.98;;
68923;SDS011;55961;52.156;20.942;2023-02-19T03:26:16;7.38;;;0.95;;
68923;SDS011;55961;52.156;20.942;2023-02-19T03:28:43;3.15;;;0.80;;
68923;SDS011;55961;52.156;20.942;2023-02-19T03:31:30;4.63;;;0.80;;
68923;SDS011;55961;52.156;20.942;2023-02-19T03:33:58;6.93;;;0.93;;
68923;SDS011;55961;52.156;20.942;2023-02-19T03:36:29;3.72;;;0.73;;
68923;SDS011;55961;52.156;20.942;2023-02-19T03:39:06;4.40;;;0.75;;
68923;SDS011;55961;52.156;20.942;2023-02-19T03:44:26;5.67;;;0.80;;
68923;SDS011;55961;52.156;20.942;2023-02-19T03:50:01;2.90;;;0.60;;
68923;SDS011;55961;52.156;20.942;2023-02-19T03:55:36;3.88;;;0.57;;
68923;SDS011;55961;52.156;20.942;2023-02-19T03:58:23;15.13;;;1.23;;
68923;SDS011;55961;52.156;20.942;2023-02-19T04:03:42;4.40;;;0.75;;
68923;SDS011;55961;52.156;20.942;2023-02-19T04:06:13;3.15;;;0.65;;
68923;SDS011;55961;52.156;20.942;2023-02-19T04:08:51;5.22;;;1.27;;
68923;SDS011;55961;52.156;20.942;2023-02-19T04:11:20;6.10;;;0.60;;
68923;SDS011;55961;52.156;20.942;2023-02-19T04:13:50;4.90;;;1.05;;
68923;SDS011;55961;52.156;20.942;2023-02-19T04:16:20;4.40;;;0.80;;
68923;SDS011;55961;52.156;20.942;2023-02-19T04:18:51;4.93;;;0.90;;
68923;SDS011;55961;52.156;20.942;2023-02-19T04:21:21;6.38;;;1.20;;
68923;SDS011;55961;52.156;20.942;2023-02-19T04:23:48;6.20;;;0.80;;
68923;SDS011;55961;52.156;20.942;2023-02-19T04:26:14;5.63;;;1.27;;
68923;SDS011;55961;52.156;20.942;2023-02-19T04:28:42;6.97;;;1.20;;
68923;SDS011;55961;52.156;20.942;2023-02-19T04:31:08;7.90;;;1.08;;
68923;SDS011;55961;52.156;20.942;2023-02-19T04:33:35;4.38;;;0.70;;
68923;SDS011;55961;52.156;20.942;2023-02-19T04:36:01;7.83;;;0.93;;
68923;SDS011;55961;52.156;20.942;2023-02-19T04:38:28;6.50;;;1.00;;
68923;SDS011;55961;52.156;20.942;2023-02-19T04:40:53;6.78;;;0.85;;
68923;SDS011;55961;52.156;20.942;2023-02-19T04:43:19;5.75;;;0.70;;
68923;SDS011;55961;52.156;20.942;2023-02-19T04:45:45;5.13;;;0.70;;
68923;SDS011;55961;52.156;20.942;2023-02-19T04:48:11;4.55;;;0.55;;
68923;SDS011;55961;52.156;20.942;2023-02-19T04:50:37;5.23;;;0.70;;
68923;SDS011;55961;52.156;20.942;2023-02-19T04:53:04;8.90;;;1.37;;
68923;SDS011;55961;52.156;20.942;2023-02-19T04:55:30;5.30;;;1.00;;
68923;SDS011;55961;52.156;20.942;2023-02-19T04:57:56;2.90;;;0.70;;
68923;SDS011;55961;52.156;20.942;2023-02-19T05:00:22;4.57;;;0.80;;
68923;SDS011;55961;52.156;20.942;2023-02-19T05:02:48;4.90;;;0.80;;
68923;SDS011;55961;52.156;20.942;2023-02-19T05:05:14;3.58;;;0.88;;
68923;SDS011;55961;52.156;20.942;2023-02-19T05:07:40;8.38;;;1.20;;
68923;SDS011;55961;52.156;20.942;2023-02-19T05:10:06;8.70;;;1.10;;
68923;SDS011;55961;52.156;20.942;2023-02-19T05:12:32;4.28;;;1.13;;
68923;SDS011;55961;52.156;20.942;2023-02-19T05:14:58;5.43;;;1.23;;
68923;SDS011;55961;52.156;20.942;2023-02-19T05:17:24;8.67;;;1.33;;
68923;SDS011;55961;52.156;20.942;2023-02-19T05:19:50;5.55;;;1.90;;
68923;SDS011;55961;52.156;20.942;2023-02-19T05:22:16;7.88;;;1.38;;
68923;SDS011;55961;52.156;20.942;2023-02-19T05:24:42;9.52;;;2.10;;
68923;SDS011;55961;52.156;20.942;2023-02-19T05:27:08;7.93;;;1.23;;
68923;SDS011;55961;52.156;20.942;2023-02-19T05:29:33;6.75;;;1.73;;
68923;SDS011;55961;52.156;20.942;2023-02-19T05:31:59;5.00;;;0.80;;
68923;SDS011;55961;52.156;20.942;2023-02-19T05:34:25;14.50;;;1.80;;
68923;SDS011;55961;52.156;20.942;2023-02-19T05:36:51;4.75;;;1.33;;
68923;SDS011;55961;52.156;20.942;2023-02-19T05:39:17;6.78;;;1.02;;
68923;SDS011;55961;52.156;20.942;2023-02-19T05:41:43;8.83;;;1.70;;
68923;SDS011;55961;52.156;20.942;2023-02-19T05:44:09;8.48;;;1.20;;
68923;SDS011;55961;52.156;20.942;2023-02-19T05:46:35;6.40;;;0.70;;
68923;SDS011;55961;52.156;20.942;2023-02-19T05:49:01;11.37;;;1.63;;
68923;SDS011;55961;52.156;20.942;2023-02-19T05:51:27;8.77;;;1.80;;
68923;SDS011;55961;52.156;20.942;2023-02-19T05:53:54;6.82;;;1.80;;
68923;SDS011;55961;52.156;20.942;2023-02-19T05:56:35;8.43;;;2.05;;
68923;SDS011;55961;52.156;20.942;2023-02-19T05:59:06;5.82;;;1.48;;
68923;SDS011;55961;52.156;20.942;2023-02-19T06:01:39;12.10;;;2.20;;
68923;SDS011;55961;52.156;20.942;2023-02-19T06:04:05;8.57;;;1.65;;
68923;SDS011;55961;52.156;20.942;2023-02-19T06:06:31;9.45;;;1.52;;
68923;SDS011;55961;52.156;20.942;2023-02-19T06:08:57;6.53;;;1.30;;
68923;SDS011;55961;52.156;20.942;2023-02-19T06:11:23;5.07;;;1.30;;
68923;SDS011;55961;52.156;20.942;2023-02-19T06:13:49;7.25;;;1.70;;
68923;SDS011;55961;52.156;20.942;2023-02-19T06:16:16;7.85;;;1.77;;
68923;SDS011;55961;52.156;20.942;2023-02-19T06:18:43;6.80;;;1.60;;
68923;SDS011;55961;52.156;20.942;2023-02-19T06:21:10;11.37;;;2.50;;
68923;SDS011;55961;52.156;20.942;2023-02-19T06:23:37;9.45;;;2.17;;
68923;SDS011;55961;52.156;20.942;2023-02-19T06:26:13;13.20;;;1.98;;
68923;SDS011;55961;52.156;20.942;2023-02-19T06:28:42;8.75;;;1.67;;
68923;SDS011;55961;52.156;20.942;2023-02-19T06:31:09;7.95;;;2.00;;
68923;SDS011;55961;52.156;20.942;2023-02-19T06:33:36;12.47;;;2.43;;
68923;SDS011;55961;52.156;20.942;2023-02-19T06:36:06;10.18;;;2.45;;
68923;SDS011;55961;52.156;20.942;2023-02-19T06:38:34;7.35;;;2.30;;
68923;SDS011;55961;52.156;20.942;2023-02-19T06:41:01;8.52;;;2.08;;
68923;SDS011;55961;52.156;20.942;2023-02-19T06:43:28;8.30;;;2.30;;
68923;SDS011;55961;52.156;20.942;2023-02-19T06:45:58;9.33;;;2.23;;
68923;SDS011;55961;52.156;20.942;2023-02-19T06:48:25;8.35;;;2.38;;
68923;SDS011;55961;52.156;20.942;2023-02-19T06:50:53;6.60;;;1.92;;
68923;SDS011;55961;52.156;20.942;2023-02-19T06:53:19;8.77;;;1.90;;
68923;SDS011;55961;52.156;20.942;2023-02-19T06:56:01;4.97;;;1.88;;
68923;SDS011;55961;52.156;20.942;2023-02-19T06:58:29;11.43;;;1.80;;
68923;SDS011;55961;52.156;20.942;2023-02-19T07:00:56;5.68;;;1.58;;
68923;SDS011;55961;52.156;20.942;2023-02-19T07:03:22;10.88;;;2.22;;
68923;SDS011;55961;52.156;20.942;2023-02-19T07:05:48;5.70;;;1.67;;
68923;SDS011;55961;52.156;20.942;2023-02-19T07:08:14;10.47;;;2.83;;
68923;SDS011;55961;52.156;20.942;2023-02-19T07:10:44;7.25;;;1.80;;
68923;SDS011;55961;52.156;20.942;2023-02-19T07:13:10;9.32;;;2.05;;
68923;SDS011;55961;52.156;20.942;2023-02-19T07:15:37;11.45;;;3.17;;
68923;SDS011;55961;52.156;20.942;2023-02-19T07:18:03;11.00;;;2.37;;
68923;SDS011;55961;52.156;20.942;2023-02-19T07:20:31;7.43;;;1.80;;
68923;SDS011;55961;52.156;20.942;2023-02-19T07:22:57;11.57;;;2.83;;
68923;SDS011;55961;52.156;20.942;2023-02-19T07:25:23;13.67;;;3.50;;
68923;SDS011;55961;52.156;20.942;2023-02-19T07:27:49;10.13;;;3.00;;
68923;SDS011;55961;52.156;20.942;2023-02-19T07:30:15;10.85;;;3.70;;
68923;SDS011;55961;52.156;20.942;2023-02-19T07:32:40;12.10;;;2.77;;
68923;SDS011;55961;52.156;20.942;2023-02-19T07:35:07;10.82;;;3.10;;
68923;SDS011;55961;52.156;20.942;2023-02-19T07:37:32;6.97;;;1.77;;
68923;SDS011;55961;52.156;20.942;2023-02-19T07:39:58;5.43;;;1.25;;
68923;SDS011;55961;52.156;20.942;2023-02-19T07:42:24;7.73;;;2.40;;
68923;SDS011;55961;52.156;20.942;2023-02-19T07:47:50;16.52;;;2.50;;
68923;SDS011;55961;52.156;20.942;2023-02-19T07:50:16;9.15;;;2.17;;
68923;SDS011;55961;52.156;20.942;2023-02-19T07:52:42;5.47;;;2.10;;
68923;SDS011;55961;52.156;20.942;2023-02-19T07:55:08;10.77;;;2.38;;
68923;SDS011;55961;52.156;20.942;2023-02-19T07:57:34;8.35;;;2.20;;
68923;SDS011;55961;52.156;20.942;2023-02-19T08:00:00;9.30;;;2.63;;
68923;SDS011;55961;52.156;20.942;2023-02-19T08:02:26;8.87;;;3.20;;
68923;SDS011;55961;52.156;20.942;2023-02-19T08:05:11;9.82;;;2.75;;
68923;SDS011;55961;52.156;20.942;2023-02-19T08:07:38;13.05;;;2.35;;
68923;SDS011;55961;52.156;20.942;2023-02-19T08:10:04;13.80;;;3.20;;
68923;SDS011;55961;52.156;20.942;2023-02-19T08:12:53;12.57;;;3.55;;
68923;SDS011;55961;52.156;20.942;2023-02-19T08:15:39;9.27;;;3.10;;
68923;SDS011;55961;52.156;20.942;2023-02-19T08:18:06;17.10;;;3.72;;
68923;SDS011;55961;52.156;20.942;2023-02-19T08:20:32;13.15;;;3.13;;
68923;SDS011;55961;52.156;20.942;2023-02-19T08:22:58;11.77;;;3.20;;
68923;SDS011;55961;52.156;20.942;2023-02-19T08:25:24;12.23;;;3.13;;
68923;SDS011;55961;52.156;20.942;2023-02-19T08:27:50;9.88;;;3.08;;
68923;SDS011;55961;52.156;20.942;2023-02-19T08:30:16;9.20;;;3.58;;
68923;SDS011;55961;52.156;20.942;2023-02-19T08:32:42;13.23;;;3.27;;
68923;SDS011;55961;52.156;20.942;2023-02-19T08:35:08;11.88;;;3.25;;
68923;SDS011;55961;52.156;20.942;2023-02-19T08:37:33;11.68;;;3.53;;
68923;SDS011;55961;52.156;20.942;2023-02-19T08:39:59;11.70;;;3.90;;
68923;SDS011;55961;52.156;20.942;2023-02-19T08:42:27;6.63;;;2.63;;
68923;SDS011;55961;52.156;20.942;2023-02-19T08:44:53;8.25;;;2.47;;
68923;SDS011;55961;52.156;20.942;2023-02-19T08:47:19;9.93;;;2.55;;
68923;SDS011;55961;52.156;20.942;2023-02-19T08:49:45;11.10;;;2.47;;
68923;SDS011;55961;52.156;20.942;2023-02-19T08:52:11;9.02;;;3.53;;
68923;SDS011;55961;52.156;20.942;2023-02-19T08:54:37;8.98;;;3.05;;
68923;SDS011;55961;52.156;20.942;2023-02-19T08:57:03;9.13;;;2.97;;
68923;SDS011;55961;52.156;20.942;2023-02-19T08:59:29;7.68;;;2.58;;
68923;SDS011;55961;52.156;20.942;2023-02-19T09:01:59;10.07;;;3.50;;
68923;SDS011;55961;52.156;20.942;2023-02-19T09:04:25;10.68;;;2.75;;
68923;SDS011;55961;52.156;20.942;2023-02-19T09:06:51;8.07;;;1.80;;
68923;SDS011;55961;52.156;20.942;2023-02-19T09:09:17;11.10;;;3.72;;
68923;SDS011;55961;52.156;20.942;2023-02-19T09:11:43;14.15;;;5.55;;
68923;SDS011;55961;52.156;20.942;2023-02-19T09:14:11;8.30;;;3.60;;
68923;SDS011;55961;52.156;20.942;2023-02-19T09:16:37;10.50;;;4.23;;
68923;SDS011;55961;52.156;20.942;2023-02-19T09:19:03;8.27;;;2.50;;
68923;SDS011;55961;52.156;20.942;2023-02-19T09:21:29;6.88;;;2.15;;
68923;SDS011;55961;52.156;20.942;2023-02-19T09:23:55;11.33;;;4.17;;
68923;SDS011;55961;52.156;20.942;2023-02-19T09:26:21;11.45;;;4.22;;
68923;SDS011;55961;52.156;20.942;2023-02-19T09:28:48;8.02;;;3.33;;
68923;SDS011;55961;52.156;20.942;2023-02-19T09:31:13;11.73;;;2.63;;
68923;SDS011;55961;52.156;20.942;2023-02-19T09:33:41;10.30;;;3.65;;
68923;SDS011;55961;52.156;20.942;2023-02-19T09:36:11;9.50;;;3.00;;
68923;SDS011;55961;52.156;20.942;2023-02-19T09:38:37;23.15;;;8.00;;
68923;SDS011;55961;52.156;20.942;2023-02-19T09:41:05;12.23;;;3.75;;
68923;SDS011;55961;52.156;20.942;2023-02-19T09:43:58;9.83;;;3.13;;
68923;SDS011;55961;52.156;20.942;2023-02-19T09:48:52;11.52;;;3.63;;
68923;SDS011;55961;52.156;20.942;2023-02-19T09:51:20;12.57;;;3.13;;
68923;SDS011;55961;52.156;20.942;2023-02-19T09:53:48;12.23;;;2.67;;
68923;SDS011;55961;52.156;20.942;2023-02-19T09:56:16;7.63;;;3.40;;
68923;SDS011;55961;52.156;20.942;2023-02-19T09:58:49;12.07;;;3.47;;
68923;SDS011;55961;52.156;20.942;2023-02-19T10:01:18;10.93;;;3.58;;
68923;SDS011;55961;52.156;20.942;2023-02-19T10:03:46;11.93;;;2.80;;
68923;SDS011;55961;52.156;20.942;2023-02-19T10:08:50;13.63;;;3.67;;
68923;SDS011;55961;52.156;20.942;2023-02-19T10:11:24;7.97;;;3.08;;
68923;SDS011;55961;52.156;20.942;2023-02-19T10:13:53;8.70;;;3.15;;
68923;SDS011;55961;52.156;20.942;2023-02-19T10:16:41;8.70;;;2.22;;
68923;SDS011;55961;52.156;20.942;2023-02-19T10:19:10;7.25;;;2.25;;
68923;SDS011;55961;52.156;20.942;2023-02-19T10:21:40;9.60;;;3.00;;
68923;SDS011;55961;52.156;20.942;2023-02-19T10:24:07;10.15;;;2.58;;
68923;SDS011;55961;52.156;20.942;2023-02-19T10:26:39;6.43;;;1.98;;
68923;SDS011;55961;52.156;20.942;2023-02-19T10:29:05;10.52;;;2.85;;
68923;SDS011;55961;52.156;20.942;2023-02-19T10:31:31;8.57;;;3.03;;
68923;SDS011;55961;52.156;20.942;2023-02-19T10:33:59;8.38;;;2.10;;
68923;SDS011;55961;52.156;20.942;2023-02-19T10:36:35;11.25;;;2.90;;
68923;SDS011;55961;52.156;20.942;2023-02-19T10:39:40;12.90;;;2.15;;
68923;SDS011;55961;52.156;20.942;2023-02-19T10:42:15;6.30;;;1.90;;
68923;SDS011;55961;52.156;20.942;2023-02-19T10:44:51;5.73;;;1.93;;
68923;SDS011;55961;52.156;20.942;2023-02-19T10:47:23;9.50;;;2.53;;
68923;SDS011;55961;52.156;20.942;2023-02-19T10:49:51;13.35;;;3.17;;
68923;SDS011;55961;52.156;20.942;2023-02-19T10:52:23;12.35;;;2.97;;
68923;SDS011;55961;52.156;20.942;2023-02-19T10:54:56;8.35;;;1.83;;
68923;SDS011;55961;52.156;20.942;2023-02-19T10:57:38;7.07;;;2.00;;
68923;SDS011;55961;52.156;20.942;2023-02-19T11:00:50;7.10;;;2.47;;
68923;SDS011;55961;52.156;20.942;2023-02-19T11:05:49;8.18;;;2.33;;
68923;SDS011;55961;52.156;20.942;2023-02-19T11:08:20;10.75;;;2.78;;
68923;SDS011;55961;52.156;20.942;2023-02-19T11:10:48;6.43;;;2.23;;
68923;SDS011;55961;52.156;20.942;2023-02-19T11:13:16;9.02;;;2.40;;
68923;SDS011;55961;52.156;20.942;2023-02-19T11:15:51;9.48;;;3.60;;
68923;SDS011;55961;52.156;20.942;2023-02-19T11:18:21;8.00;;;2.67;;
68923;SDS011;55961;52.156;20.942;2023-02-19T11:23:44;6.07;;;2.43;;
68923;SDS011;55961;52.156;20.942;2023-02-19T11:26:20;11.27;;;2.78;;
68923;SDS011;55961;52.156;20.942;2023-02-19T11:28:57;7.63;;;2.20;;
68923;SDS011;55961;52.156;20.942;2023-02-19T11:33:56;18.55;;;5.40;;
68923;SDS011;55961;52.156;20.942;2023-02-19T11:38:51;7.60;;;2.30;;
68923;SDS011;55961;52.156;20.942;2023-02-19T11:43:47;6.57;;;2.42;;
68923;SDS011;55961;52.156;20.942;2023-02-19T11:55:20;9.20;;;3.13;;
68923;SDS011;55961;52.156;20.942;2023-02-19T12:06:40;12.45;;;1.92;;
68923;SDS011;55961;52.156;20.942;2023-02-19T12:12:34;6.45;;;1.20;;
68923;SDS011;55961;52.156;20.942;2023-02-19T12:20:41;6.90;;;1.77;;
68923;SDS011;55961;52.156;20.942;2023-02-19T12:37:59;5.68;;;1.40;;
68923;SDS011;55961;52.156;20.942;2023-02-19T12:51:28;5.97;;;1.00;;
68923;SDS011;55961;52.156;20.942;2023-02-19T12:59:23;7.50;;;1.33;;
68923;SDS011;55961;52.156;20.942;2023-02-19T13:04:48;8.63;;;1.60;;
68923;SDS011;55961;52.156;20.942;2023-02-19T13:07:31;8.25;;;1.88;;
68923;SDS011;55961;52.156;20.942;2023-02-19T13:12:55;8.38;;;2.10;;
68923;SDS011;55961;52.156;20.942;2023-02-19T13:15:34;11.23;;;2.08;;
68923;SDS011;55961;52.156;20.942;2023-02-19T13:18:11;9.90;;;1.95;;
68923;SDS011;55961;52.156;20.942;2023-02-19T13:20:47;8.00;;;2.38;;
68923;SDS011;55961;52.156;20.942;2023-02-19T13:26:44;6.43;;;2.00;;
68923;SDS011;55961;52.156;20.942;2023-02-19T13:31:44;9.05;;;2.20;;
68923;SDS011;55961;52.156;20.942;2023-02-19T13:34:37;4.57;;;1.33;;
68923;SDS011;55961;52.156;20.942;2023-02-19T13:37:06;6.63;;;1.63;;
68923;SDS011;55961;52.156;20.942;2023-02-19T13:39:33;8.00;;;2.20;;
68923;SDS011;55961;52.156;20.942;2023-02-19T13:41:59;7.43;;;2.17;;
68923;SDS011;55961;52.156;20.942;2023-02-19T13:44:27;10.90;;;2.67;;
68923;SDS011;55961;52.156;20.942;2023-02-19T13:46:54;7.97;;;2.42;;
68923;SDS011;55961;52.156;20.942;2023-02-19T13:51:53;7.38;;;1.80;;
68923;SDS011;55961;52.156;20.942;2023-02-19T13:59:57;10.50;;;2.40;;
68923;SDS011;55961;52.156;20.942;2023-02-19T14:02:25;11.53;;;2.50;;
68923;SDS011;55961;52.156;20.942;2023-02-19T14:10:00;10.80;;;3.15;;
68923;SDS011;55961;52.156;20.942;2023-02-19T14:12:30;10.70;;;3.45;;
68923;SDS011;55961;52.156;20.942;2023-02-19T14:15:36;15.40;;;4.40;;
68923;SDS011;55961;52.156;20.942;2023-02-19T14:18:39;14.55;;;2.80;;
68923;SDS011;55961;52.156;20.942;2023-02-19T14:21:06;9.75;;;3.05;;
68923;SDS011;55961;52.156;20.942;2023-02-19T14:23:40;10.10;;;2.95;;
68923;SDS011;55961;52.156;20.942;2023-02-19T14:26:07;10.98;;;2.90;;
68923;SDS011;55961;52.156;20.942;2023-02-19T14:28:43;14.63;;;3.63;;
68923;SDS011;55961;52.156;20.942;2023-02-19T14:31:18;8.20;;;2.33;;
68923;SDS011;55961;52.156;20.942;2023-02-19T14:34:04;8.85;;;2.30;;
68923;SDS011;55961;52.156;20.942;2023-02-19T14:36:54;8.30;;;2.70;;
68923;SDS011;55961;52.156;20.942;2023-02-19T14:41:52;10.30;;;2.10;;
68923;SDS011;55961;52.156;20.942;2023-02-19T14:44:23;8.20;;;1.88;;
68923;SDS011;55961;52.156;20.942;2023-02-19T14:49:47;7.20;;;1.40;;
68923;SDS011;55961;52.156;20.942;2023-02-19T14:57:20;7.75;;;1.40;;
68923;SDS011;55961;52.156;20.942;2023-02-19T14:59:53;5.22;;;1.23;;
68923;SDS011;55961;52.156;20.942;2023-02-19T15:02:23;5.63;;;1.27;;
68923;SDS011;55961;52.156;20.942;2023-02-19T15:04:51;7.70;;;1.88;;
68923;SDS011;55961;52.156;20.942;2023-02-19T15:07:29;6.88;;;1.65;;
68923;SDS011;55961;52.156;20.942;2023-02-19T15:09:59;8.27;;;1.83;;
68923;SDS011;55961;52.156;20.942;2023-02-19T15:12:30;9.18;;;2.40;;
68923;SDS011;55961;52.156;20.942;2023-02-19T15:15:01;7.97;;;1.43;;
68923;SDS011;55961;52.156;20.942;2023-02-19T15:17:29;6.57;;;1.63;;
68923;SDS011;55961;52.156;20.942;2023-02-19T15:20:04;6.30;;;1.35;;
68923;SDS011;55961;52.156;20.942;2023-02-19T15:22:35;9.70;;;2.30;;
68923;SDS011;55961;52.156;20.942;2023-02-19T15:25:05;8.27;;;2.50;;
68923;SDS011;55961;52.156;20.942;2023-02-19T15:27:32;6.40;;;1.67;;
68923;SDS011;55961;52.156;20.942;2023-02-19T15:29:59;7.45;;;1.90;;
68923;SDS011;55961;52.156;20.942;2023-02-19T15:32:26;10.10;;;3.50;;
68923;SDS011;55961;52.156;20.942;2023-02-19T15:35:00;10.77;;;3.25;;
68923;SDS011;55961;52.156;20.942;2023-02-19T15:37:28;16.70;;;4.30;;
68923;SDS011;55961;52.156;20.942;2023-02-19T15:40:01;13.82;;;4.00;;
68923;SDS011;55961;52.156;20.942;2023-02-19T15:42:31;10.30;;;2.85;;
68923;SDS011;55961;52.156;20.942;2023-02-19T15:50:14;8.13;;;1.77;;
68923;SDS011;55961;52.156;20.942;2023-02-19T15:52:47;8.45;;;2.03;;
68923;SDS011;55961;52.156;20.942;2023-02-19T15:57:55;7.47;;;2.45;;
68923;SDS011;55961;52.156;20.942;2023-02-19T16:00:39;9.07;;;3.20;;
68923;SDS011;55961;52.156;20.942;2023-02-19T16:03:17;8.73;;;3.37;;
68923;SDS011;55961;52.156;20.942;2023-02-19T16:05:45;11.32;;;4.22;;
68923;SDS011;55961;52.156;20.942;2023-02-19T16:08:26;10.40;;;4.07;;
68923;SDS011;55961;52.156;20.942;2023-02-19T16:11:04;12.73;;;3.45;;
68923;SDS011;55961;52.156;20.942;2023-02-19T16:13:52;9.05;;;2.78;;
68923;SDS011;55961;52.156;20.942;2023-02-19T16:16:38;7.30;;;2.30;;
68923;SDS011;55961;52.156;20.942;2023-02-19T16:19:06;7.22;;;2.67;;
68923;SDS011;55961;52.156;20.942;2023-02-19T16:21:34;12.68;;;3.70;;
68923;SDS011;55961;52.156;20.942;2023-02-19T16:24:02;17.58;;;6.68;;
68923;SDS011;55961;52.156;20.942;2023-02-19T16:26:43;11.63;;;4.47;;
68923;SDS011;55961;52.156;20.942;2023-02-19T16:29:20;8.80;;;3.10;;
68923;SDS011;55961;52.156;20.942;2023-02-19T16:31:48;24.23;;;9.23;;
68923;SDS011;55961;52.156;20.942;2023-02-19T16:34:22;37.13;;;11.25;;
68923;SDS011;55961;52.156;20.942;2023-02-19T16:36:59;21.33;;;6.50;;
68923;SDS011;55961;52.156;20.942;2023-02-19T16:39:26;12.55;;;5.18;;
68923;SDS011;55961;52.156;20.942;2023-02-19T16:44:34;15.30;;;6.68;;
68923;SDS011;55961;52.156;20.942;2023-02-19T16:47:01;21.55;;;9.30;;
68923;SDS011;55961;52.156;20.942;2023-02-19T16:49:30;17.25;;;6.30;;
68923;SDS011;55961;52.156;20.942;2023-02-19T16:51:57;14.27;;;7.05;;
68923;SDS011;55961;52.156;20.942;2023-02-19T16:54:24;14.23;;;6.13;;
68923;SDS011;55961;52.156;20.942;2023-02-19T16:56:50;9.77;;;4.15;;
68923;SDS011;55961;52.156;20.942;2023-02-19T16:59:16;13.27;;;4.53;;
68923;SDS011;55961;52.156;20.942;2023-02-19T17:01:42;13.23;;;4.03;;
68923;SDS011;55961;52.156;20.942;2023-02-19T17:04:09;12.77;;;3.33;;
68923;SDS011;55961;52.156;20.942;2023-02-19T17:06:37;16.02;;;5.55;;
68923;SDS011;55961;52.156;20.942;2023-02-19T17:09:04;15.18;;;5.15;;
68923;SDS011;55961;52.156;20.942;2023-02-19T17:11:31;16.23;;;6.72;;
68923;SDS011;55961;52.156;20.942;2023-02-19T17:13:56;17.30;;;5.97;;
68923;SDS011;55961;52.156;20.942;2023-02-19T17:16:24;14.25;;;6.45;;
68923;SDS011;55961;52.156;20.942;2023-02-19T17:18:52;11.63;;;4.80;;
68923;SDS011;55961;52.156;20.942;2023-02-19T17:21:22;19.13;;;5.18;;
68923;SDS011;55961;52.156;20.942;2023-02-19T17:23:50;19.63;;;6.57;;
68923;SDS011;55961;52.156;20.942;2023-02-19T17:26:18;14.80;;;5.43;;
68923;SDS011;55961;52.156;20.942;2023-02-19T17:28:47;15.25;;;5.28;;
68923;SDS011;55961;52.156;20.942;2023-02-19T17:31:14;10.63;;;4.03;;